createdAt,value
2023-03-05T00:00:41.688Z,100823.91
2023-03-05T00:03:20.895Z,100824.97
2023-03-05T00:05:50.374Z,100825.84
2023-03-05T00:08:19.886Z,100823.84
2023-03-05T00:10:46.499Z,100822.06
2023-03-05T00:13:18.783Z,100827.81
2023-03-05T00:15:45.390Z,100818.56
2023-03-05T00:18:39.166Z,100822.13
2023-03-05T00:21:36.234Z,100814.09
2023-03-05T00:24:11.530Z,100820.97
2023-03-05T00:26:45.305Z,100820.81
2023-03-05T00:29:33.698Z,100818.53
2023-03-05T00:32:00.317Z,100816.19
2023-03-05T00:34:27.048Z,100817.31
2023-03-05T00:36:56.651Z,100814.53
2023-03-05T00:39:24.246Z,100809.63
2023-03-05T00:41:53.731Z,100812.56
2023-03-05T00:44:20.470Z,100815.03
2023-03-05T00:46:48.489Z,100813.81
2023-03-05T00:49:32.321Z,100810.38
2023-03-05T00:52:06.154Z,100803.47
2023-03-05T00:54:38.485Z,100800.53
2023-03-05T00:57:08.002Z,100800.63
2023-03-05T00:59:37.362Z,100795.19
2023-03-05T01:02:04.083Z,100793.41
2023-03-05T01:04:30.806Z,100791.72
2023-03-05T01:07:06.262Z,100789.31
2023-03-05T01:09:35.588Z,100780.91
2023-03-05T01:12:02.164Z,100776.72
2023-03-05T01:14:28.840Z,100781.44
2023-03-05T01:17:12.019Z,100776.28
2023-03-05T01:19:40.958Z,100772.47
2023-03-05T01:22:18.523Z,100765.50
2023-03-05T01:24:46.011Z,100760.78
2023-03-05T01:27:30.517Z,100760.47
2023-03-05T01:29:59.370Z,100760.00
2023-03-05T01:32:28.721Z,100756.03
2023-03-05T01:34:57.491Z,100750.69
2023-03-05T01:37:27.016Z,100747.00
2023-03-05T01:39:53.617Z,100749.50
2023-03-05T01:42:22.832Z,100746.13
2023-03-05T01:45:12.096Z,100738.88
2023-03-05T01:47:44.431Z,100735.09
2023-03-05T01:50:16.177Z,100739.91
2023-03-05T01:53:17.244Z,100740.97
2023-03-05T01:55:50.640Z,100734.00
2023-03-05T01:58:25.693Z,100740.69
2023-03-05T02:00:53.700Z,100731.84
2023-03-05T02:03:22.825Z,100734.75
2023-03-05T02:05:49.607Z,100731.78
2023-03-05T02:08:28.057Z,100734.25
2023-03-05T02:10:59.657Z,100733.94
2023-03-05T02:13:33.248Z,100735.94
2023-03-05T02:16:05.548Z,100734.31
2023-03-05T02:18:46.899Z,100739.84
2023-03-05T02:21:27.829Z,100732.69
2023-03-05T02:23:54.537Z,100735.94
2023-03-05T02:26:28.298Z,100734.25
2023-03-05T02:29:01.420Z,100733.66
2023-03-05T02:31:36.974Z,100740.16
2023-03-05T02:34:12.479Z,100737.31
2023-03-05T02:36:48.072Z,100737.03
2023-03-05T02:39:20.965Z,100729.69
2023-03-05T02:41:52.220Z,100728.78
2023-03-05T02:44:23.143Z,100731.78
2023-03-05T02:46:58.521Z,100729.22
2023-03-05T02:49:25.420Z,100726.44
2023-03-05T02:52:09.568Z,100727.81
2023-03-05T02:54:44.876Z,100722.47
2023-03-05T02:57:13.979Z,100727.19
2023-03-05T02:59:47.835Z,100728.59
2023-03-05T03:02:15.294Z,100718.19
2023-03-05T03:08:00.169Z,100723.09
2023-03-05T03:10:29.472Z,100727.00
2023-03-05T03:13:04.058Z,100725.25
2023-03-05T03:15:44.095Z,100722.94
2023-03-05T03:18:11.547Z,100718.06
2023-03-05T03:20:41.334Z,100714.81
2023-03-05T03:23:08.038Z,100723.16
2023-03-05T03:25:43.273Z,100724.47
2023-03-05T03:28:12.682Z,100725.19
2023-03-05T03:30:53.282Z,100721.75
2023-03-05T03:33:31.906Z,100724.56
2023-03-05T03:35:59.390Z,100722.03
2023-03-05T03:38:26.200Z,100727.25
2023-03-05T03:41:07.671Z,100719.78
2023-03-05T03:43:40.864Z,100727.16
2023-03-05T03:46:26.406Z,100712.25
2023-03-05T03:49:09.358Z,100713.06
2023-03-05T03:51:35.982Z,100716.78
2023-03-05T03:54:07.695Z,100721.13
2023-03-05T03:56:48.012Z,100709.69
2023-03-05T03:59:15.513Z,100713.44
2023-03-05T04:01:51.547Z,100714.66
2023-03-05T04:07:11.471Z,100714.03
2023-03-05T04:09:39.621Z,100717.34
2023-03-05T04:12:15.228Z,100713.66
2023-03-05T04:14:54.248Z,100707.84
2023-03-05T04:20:06.843Z,100715.78
2023-03-05T04:22:52.801Z,100707.75
2023-03-05T04:25:22.390Z,100709.00
2023-03-05T04:27:59.137Z,100702.97
2023-03-05T04:30:31.670Z,100710.50
2023-03-05T04:32:58.476Z,100706.56
2023-03-05T04:35:25.147Z,100701.00
2023-03-05T04:37:51.735Z,100705.72
2023-03-05T04:40:30.249Z,100705.31
2023-03-05T04:43:04.828Z,100702.06
2023-03-05T04:45:41.151Z,100702.53
2023-03-05T04:48:08.370Z,100709.59
2023-03-05T04:50:40.979Z,100700.09
2023-03-05T04:53:07.560Z,100693.47
2023-03-05T04:55:51.746Z,100694.03
2023-03-05T04:58:19.279Z,100702.84
2023-03-05T05:01:03.342Z,100695.97
2023-03-05T05:03:32.560Z,100691.38
2023-03-05T05:06:00.337Z,100690.03
2023-03-05T05:08:30.512Z,100694.53
2023-03-05T05:11:05.560Z,100699.72
2023-03-05T05:13:37.054Z,100695.19
2023-03-05T05:16:06.929Z,100694.91
2023-03-05T05:18:42.719Z,100692.44
2023-03-05T05:21:17.815Z,100690.41
2023-03-05T05:24:01.165Z,100688.50
2023-03-05T05:26:30.565Z,100687.69
2023-03-05T05:29:05.937Z,100689.53
2023-03-05T05:31:33.434Z,100694.94
2023-03-05T05:34:03.198Z,100694.69
2023-03-05T05:36:29.822Z,100698.16
2023-03-05T05:38:57.182Z,100694.59
2023-03-05T05:41:25.227Z,100694.56
2023-03-05T05:43:51.804Z,100688.78
2023-03-05T05:46:32.664Z,100699.31
2023-03-05T05:48:59.934Z,100703.03
2023-03-05T05:51:27.123Z,100697.34
2023-03-05T05:54:00.988Z,100694.34
2023-03-05T05:56:30.656Z,100693.00
2023-03-05T05:58:57.636Z,100693.00
2023-03-05T06:01:30.840Z,100694.63
2023-03-05T06:04:05.524Z,100696.13
2023-03-05T06:06:35.252Z,100691.13
2023-03-05T06:09:01.887Z,100688.50
2023-03-05T06:11:34.174Z,100691.16
2023-03-05T06:14:01.116Z,100695.81
2023-03-05T06:16:28.749Z,100699.34
2023-03-05T06:19:03.949Z,100702.28
2023-03-05T06:21:40.381Z,100705.72
2023-03-05T06:24:08.119Z,100703.25
2023-03-05T06:26:39.316Z,100697.34
2023-03-05T06:29:06.237Z,100702.88
2023-03-05T06:31:33.433Z,100699.09
2023-03-05T06:34:03.788Z,100701.00
2023-03-05T06:36:31.300Z,100704.03
2023-03-05T06:39:01.149Z,100703.56
2023-03-05T06:41:30.892Z,100703.44
2023-03-05T06:44:02.846Z,100706.31
2023-03-05T06:46:34.805Z,100707.94
2023-03-05T06:49:07.156Z,100704.94
2023-03-05T06:51:44.570Z,100708.25
2023-03-05T06:54:23.380Z,100707.28
2023-03-05T06:56:50.097Z,100712.75
2023-03-05T06:59:22.674Z,100713.44
2023-03-05T07:01:52.010Z,100712.84
2023-03-05T07:04:40.178Z,100717.34
2023-03-05T07:07:07.037Z,100720.19
2023-03-05T07:09:36.810Z,100718.16
2023-03-05T07:12:03.522Z,100714.34
2023-03-05T07:14:33.176Z,100719.59
2023-03-05T07:16:59.810Z,100714.63
2023-03-05T07:19:32.952Z,100716.75
2023-03-05T07:22:00.208Z,100715.66
2023-03-05T07:24:32.449Z,100717.66
2023-03-05T07:27:00.820Z,100713.09
2023-03-05T07:29:28.941Z,100726.50
2023-03-05T07:31:55.910Z,100719.19
2023-03-05T07:34:27.528Z,100718.78
2023-03-05T07:36:58.950Z,100722.94
2023-03-05T07:39:32.306Z,100722.34
2023-03-05T07:42:08.791Z,100722.44
2023-03-05T07:44:40.408Z,100718.75
2023-03-05T07:47:09.988Z,100724.56
2023-03-05T07:49:36.824Z,100725.22
2023-03-05T07:52:03.590Z,100723.88
2023-03-05T07:54:30.239Z,100729.16
2023-03-05T07:56:58.340Z,100723.91
2023-03-05T07:59:36.854Z,100737.50
2023-03-05T08:02:10.388Z,100726.19
2023-03-05T08:04:40.358Z,100729.63
2023-03-05T08:07:10.812Z,100727.00
2023-03-05T08:09:40.121Z,100723.38
2023-03-05T08:12:08.732Z,100715.63
2023-03-05T08:14:41.350Z,100725.19
2023-03-05T08:17:13.528Z,100715.41
2023-03-05T08:19:43.025Z,100711.50
2023-03-05T08:22:20.342Z,100710.31
2023-03-05T08:24:56.148Z,100715.59
2023-03-05T08:27:32.423Z,100710.94
2023-03-05T08:29:59.081Z,100708.97
2023-03-05T08:32:34.581Z,100721.16
2023-03-05T08:35:08.880Z,100722.94
2023-03-05T08:37:38.446Z,100719.13
2023-03-05T08:40:19.932Z,100714.50
2023-03-05T08:42:47.485Z,100714.31
2023-03-05T08:45:23.397Z,100711.25
2023-03-05T08:48:03.920Z,100711.31
2023-03-05T08:50:37.998Z,100710.78
2023-03-05T08:53:05.429Z,100704.13
2023-03-05T08:55:35.314Z,100699.22
2023-03-05T08:58:01.957Z,100696.75
2023-03-05T09:00:32.000Z,100703.47
2023-03-05T09:03:04.457Z,100689.91
2023-03-05T09:05:44.826Z,100690.50
2023-03-05T09:08:14.290Z,100682.28
2023-03-05T09:10:44.412Z,100691.66
2023-03-05T09:13:11.467Z,100689.31
2023-03-05T09:15:39.121Z,100683.81
2023-03-05T09:18:06.193Z,100684.81
2023-03-05T09:20:39.000Z,100685.28
2023-03-05T09:23:12.557Z,100676.94
2023-03-05T09:25:41.021Z,100669.88
2023-03-05T09:28:08.290Z,100679.22
2023-03-05T09:30:38.688Z,100674.66
2023-03-05T09:33:09.963Z,100675.41
2023-03-05T09:35:42.696Z,100672.66
2023-03-05T09:38:09.969Z,100675.00
2023-03-05T09:40:42.226Z,100670.78
2023-03-05T09:43:53.473Z,100664.69
2023-03-05T09:46:50.686Z,100664.88
2023-03-05T09:52:43.277Z,100659.44
2023-03-05T09:55:24.660Z,100664.69
2023-03-05T09:57:59.065Z,100657.13
2023-03-05T10:00:27.800Z,100657.78
2023-03-05T10:02:59.250Z,100657.22
2023-03-05T10:05:48.074Z,100655.13
2023-03-05T10:08:19.262Z,100654.69
2023-03-05T10:10:59.188Z,100651.03
2023-03-05T10:13:34.757Z,100649.84
2023-03-05T10:16:20.516Z,100650.22
2023-03-05T10:19:17.557Z,100655.66
2023-03-05T10:22:13.395Z,100649.53
2023-03-05T10:25:21.033Z,100645.47
2023-03-05T10:28:00.525Z,100640.38
2023-03-05T10:30:58.406Z,100637.22
2023-03-05T10:33:28.463Z,100636.34
2023-03-05T10:36:19.220Z,100624.59
2023-03-05T10:39:04.574Z,100628.50
2023-03-05T10:41:44.041Z,100619.69
2023-03-05T10:44:28.781Z,100627.00
2023-03-05T10:47:01.192Z,100616.09
2023-03-05T10:49:38.539Z,100608.88
2023-03-05T10:52:09.405Z,100604.78
2023-03-05T10:54:39.286Z,100603.59
2023-03-05T10:57:29.412Z,100604.22
2023-03-05T11:00:18.279Z,100602.31
2023-03-05T11:03:03.334Z,100605.22
2023-03-05T11:05:44.455Z,100593.22
2023-03-05T11:08:38.585Z,100599.44
2023-03-05T11:11:21.982Z,100593.13
2023-03-05T11:13:53.658Z,100581.78
2023-03-05T11:16:48.352Z,100587.34
2023-03-05T11:19:20.161Z,100582.81
2023-03-05T11:22:25.684Z,100574.47
2023-03-05T11:25:18.706Z,100566.47
2023-03-05T11:27:55.904Z,100560.75
2023-03-05T11:30:33.608Z,100556.06
2023-03-05T11:33:22.626Z,100551.19
2023-03-05T11:36:19.028Z,100542.25
2023-03-05T11:39:07.312Z,100535.63
2023-03-05T11:41:59.059Z,100541.78
2023-03-05T11:44:50.836Z,100525.72
2023-03-05T11:47:30.982Z,100523.09
2023-03-05T11:50:15.992Z,100513.78
2023-03-05T11:52:58.428Z,100513.97
2023-03-05T11:55:43.453Z,100500.38
2023-03-05T11:58:41.210Z,100507.69
2023-03-05T12:01:45.979Z,100498.31
2023-03-05T12:04:17.951Z,100497.94
2023-03-05T12:06:51.171Z,100490.78
2023-03-05T12:09:26.997Z,100484.84
2023-03-05T12:12:28.138Z,100479.78
2023-03-05T12:15:26.335Z,100477.38
2023-03-05T12:18:30.674Z,100477.38
2023-03-05T12:21:29.341Z,100471.44
2023-03-05T12:23:58.634Z,100473.06
2023-03-05T12:27:07.468Z,100467.97
2023-03-05T12:29:39.113Z,100465.31
2023-03-05T12:32:33.042Z,100461.69
2023-03-05T12:35:33.395Z,100453.13
2023-03-05T12:38:26.878Z,100441.88
2023-03-05T12:41:28.311Z,100442.88
2023-03-05T12:44:06.927Z,100435.75
2023-03-05T12:47:10.935Z,100431.22
2023-03-05T12:49:45.353Z,100431.63
2023-03-05T12:52:27.350Z,100425.22
2023-03-05T12:55:12.016Z,100421.22
2023-03-05T12:57:45.072Z,100419.59
2023-03-05T13:00:28.805Z,100412.47
2023-03-05T13:03:09.552Z,100405.72
2023-03-05T13:05:37.769Z,100404.94
2023-03-05T13:08:27.196Z,100403.06
2023-03-05T13:11:06.292Z,100401.47
2023-03-05T13:13:41.662Z,100406.09
2023-03-05T13:16:40.195Z,100398.38
2023-03-05T13:19:16.582Z,100393.78
2023-03-05T13:21:51.803Z,100391.19
2023-03-05T13:24:23.725Z,100386.69
2023-03-05T13:26:57.101Z,100378.84
2023-03-05T13:29:28.154Z,100377.22
2023-03-05T13:31:57.465Z,100379.63
2023-03-05T13:34:46.699Z,100364.56
2023-03-05T13:37:33.432Z,100375.44
2023-03-05T13:40:18.954Z,100370.41
2023-03-05T13:42:45.654Z,100364.72
2023-03-05T13:45:25.251Z,100369.44
2023-03-05T13:48:03.521Z,100370.03
2023-03-05T13:50:36.105Z,100370.59
2023-03-05T13:53:22.898Z,100358.25
2023-03-05T13:55:54.692Z,100356.81
2023-03-05T13:58:40.222Z,100352.69
2023-03-05T14:01:26.855Z,100356.19
2023-03-05T14:03:55.614Z,100349.72
2023-03-05T14:06:23.959Z,100348.16
2023-03-05T14:09:12.437Z,100350.22
2023-03-05T14:11:41.869Z,100337.63
2023-03-05T14:14:27.034Z,100334.72
2023-03-05T14:16:58.181Z,100339.69
2023-03-05T14:19:34.485Z,100340.84
2023-03-05T14:22:07.673Z,100340.06
2023-03-05T14:24:36.572Z,100341.09
2023-03-05T14:27:27.176Z,100337.38
2023-03-05T14:29:58.342Z,100334.78
2023-03-05T14:32:37.083Z,100324.50
2023-03-05T14:35:30.611Z,100322.97
2023-03-05T14:38:10.052Z,100323.25
2023-03-05T14:40:45.176Z,100322.66
2023-03-05T14:43:14.889Z,100318.63
2023-03-05T14:45:45.699Z,100315.41
2023-03-05T14:48:18.074Z,100313.13
2023-03-05T14:50:45.681Z,100304.91
2023-03-05T14:53:22.122Z,100300.66
2023-03-05T14:55:51.729Z,100291.84
2023-03-05T14:58:27.087Z,100287.22
2023-03-05T15:00:54.766Z,100288.28
2023-03-05T15:03:25.305Z,100290.00
2023-03-05T15:05:55.067Z,100283.72
2023-03-05T15:08:25.070Z,100281.19
2023-03-05T15:11:00.041Z,100281.88
2023-03-05T15:13:27.526Z,100275.34
2023-03-05T15:15:54.795Z,100275.63
2023-03-05T15:18:30.213Z,100276.22
2023-03-05T15:21:12.751Z,100265.88
2023-03-05T15:23:45.881Z,100272.59
2023-03-05T15:26:17.560Z,100266.16
2023-03-05T15:28:47.569Z,100252.75
2023-03-05T15:31:16.369Z,100259.88
2023-03-05T15:33:50.775Z,100255.41
2023-03-05T15:36:21.882Z,100254.50
2023-03-05T15:39:03.798Z,100257.81
2023-03-05T15:41:30.504Z,100250.19
2023-03-05T15:44:02.752Z,100251.88
2023-03-05T15:46:35.694Z,100244.09
2023-03-05T15:49:05.757Z,100248.22
2023-03-05T15:51:32.529Z,100237.50
2023-03-05T15:54:01.797Z,100242.25
2023-03-05T15:56:31.358Z,100241.13
2023-03-05T15:58:58.145Z,100220.84
2023-03-05T16:01:27.439Z,100229.13
2023-03-05T16:03:58.179Z,100233.41
2023-03-05T16:06:29.313Z,100223.84
2023-03-05T16:09:18.760Z,100227.59
2023-03-05T16:11:53.667Z,100225.06
2023-03-05T16:14:25.817Z,100222.59
2023-03-05T16:17:06.962Z,100221.78
2023-03-05T16:19:40.718Z,100224.47
2023-03-05T16:22:10.595Z,100218.94
2023-03-05T16:24:38.333Z,100210.00
2023-03-05T16:27:06.329Z,100211.50
2023-03-05T16:29:33.122Z,100203.50
2023-03-05T16:32:02.491Z,100201.94
2023-03-05T16:34:38.342Z,100206.06
2023-03-05T16:37:08.710Z,100206.91
2023-03-05T16:39:35.408Z,100206.69
2023-03-05T16:42:02.025Z,100202.06
2023-03-05T16:45:46.144Z,100204.13
2023-03-05T16:47:27.197Z,100210.88
2023-03-05T16:50:00.828Z,100210.88
2023-03-05T16:52:31.137Z,100206.63
2023-03-05T16:54:58.395Z,100205.44
2023-03-05T16:57:27.622Z,100206.88
2023-03-05T17:00:01.600Z,100202.59
2023-03-05T17:02:28.513Z,100202.56
2023-03-05T17:04:55.359Z,100205.41
2023-03-05T17:07:22.033Z,100202.38
2023-03-05T17:09:48.668Z,100204.81
2023-03-05T17:12:15.687Z,100202.16
2023-03-05T17:14:45.607Z,100211.72
2023-03-05T17:17:16.988Z,100203.00
2023-03-05T17:19:46.465Z,100212.16
2023-03-05T17:22:16.290Z,100212.94
2023-03-05T17:24:42.960Z,100219.47
2023-03-05T17:27:10.148Z,100220.69
2023-03-05T17:29:36.779Z,100220.47
2023-03-05T17:32:07.136Z,100223.13
2023-03-05T17:34:37.590Z,100218.06
2023-03-05T17:37:06.064Z,100230.88
2023-03-05T17:39:40.388Z,100225.78
2023-03-05T17:42:07.008Z,100235.94
2023-03-05T17:44:33.665Z,100234.31
2023-03-05T17:47:03.348Z,100238.56
2023-03-05T17:49:30.236Z,100244.47
2023-03-05T17:52:11.868Z,100249.56
2023-03-05T17:54:39.580Z,100256.06
2023-03-05T17:57:20.435Z,100261.56
2023-03-05T17:59:49.879Z,100255.63
2023-03-05T18:02:19.429Z,100257.44
2023-03-05T18:04:59.427Z,100257.47
2023-03-05T18:07:28.757Z,100252.59
2023-03-05T18:09:57.797Z,100258.69
2023-03-05T18:12:26.715Z,100259.50
2023-03-05T18:14:54.415Z,100261.88
2023-03-05T18:17:24.462Z,100254.16
2023-03-05T18:19:56.638Z,100258.44
2023-03-05T18:22:23.295Z,100251.31
2023-03-05T18:24:55.173Z,100263.25
2023-03-05T18:27:25.319Z,100258.59
2023-03-05T18:30:04.659Z,100259.78
2023-03-05T18:32:35.421Z,100262.78
2023-03-05T18:35:09.423Z,100271.97
2023-03-05T18:37:36.070Z,100266.84
2023-03-05T18:40:07.285Z,100272.59
2023-03-05T18:42:41.115Z,100266.31
2023-03-05T18:45:18.738Z,100271.72
2023-03-05T18:47:47.689Z,100277.81
2023-03-05T18:50:17.792Z,100269.72
2023-03-05T18:52:45.560Z,100274.84
2023-03-05T18:55:28.597Z,100271.13
2023-03-05T18:58:02.408Z,100278.84
2023-03-05T19:00:45.128Z,100268.19
2023-03-05T19:03:21.795Z,100274.81
2023-03-05T19:05:49.414Z,100280.75
2023-03-05T19:08:16.015Z,100272.59
2023-03-05T19:10:50.734Z,100274.81
2023-03-05T19:13:41.998Z,100270.66
2023-03-05T19:16:17.611Z,100266.59
2023-03-05T19:19:37.472Z,100273.59
2023-03-05T19:22:10.287Z,100273.97
2023-03-05T19:24:38.122Z,100278.44
2023-03-05T19:27:08.712Z,100278.34
2023-03-05T19:30:02.498Z,100276.44
2023-03-05T19:32:35.198Z,100273.75
2023-03-05T19:35:02.329Z,100278.78
2023-03-05T19:37:29.003Z,100275.75
2023-03-05T19:39:55.698Z,100278.88
2023-03-05T19:42:22.312Z,100279.03
2023-03-05T19:44:49.312Z,100277.16
2023-03-05T19:47:18.554Z,100276.91
2023-03-05T19:49:45.130Z,100277.13
2023-03-05T19:52:11.755Z,100283.00
2023-03-05T19:54:45.552Z,100277.66
2023-03-05T19:57:14.944Z,100284.72
2023-03-05T19:59:56.045Z,100282.34
2023-03-05T20:02:22.720Z,100285.47
2023-03-05T20:04:54.942Z,100280.22
2023-03-05T20:07:21.664Z,100277.63
2023-03-05T20:09:59.242Z,100286.94
2023-03-05T20:12:31.010Z,100284.16
2023-03-05T20:14:58.553Z,100284.88
2023-03-05T20:17:25.176Z,100286.22
2023-03-05T20:19:54.694Z,100287.19
2023-03-05T20:22:21.312Z,100288.88
2023-03-05T20:24:53.985Z,100285.91
2023-03-05T20:27:20.641Z,100292.19
2023-03-05T20:29:47.276Z,100291.19
2023-03-05T20:32:16.554Z,100284.41
2023-03-05T20:34:51.358Z,100289.50
2023-03-05T20:37:28.183Z,100292.81
2023-03-05T20:39:54.798Z,100288.72
2023-03-05T20:42:23.469Z,100291.19
2023-03-05T20:44:50.210Z,100297.19
2023-03-05T20:47:37.743Z,100298.00
2023-03-05T20:50:09.054Z,100298.75
2023-03-05T20:52:39.013Z,100295.78
2023-03-05T20:55:09.919Z,100299.75
2023-03-05T20:57:40.327Z,100309.78
2023-03-05T21:00:08.592Z,100303.44
2023-03-05T21:02:35.229Z,100308.28
2023-03-05T21:05:05.677Z,100302.13
2023-03-05T21:07:49.136Z,100298.59
2023-03-05T21:10:16.156Z,100300.06
2023-03-05T21:12:44.021Z,100302.88
2023-03-05T21:15:25.355Z,100301.06
2023-03-05T21:17:58.614Z,100301.63
2023-03-05T21:20:33.221Z,100300.53
2023-03-05T21:22:59.966Z,100295.84
2023-03-05T21:25:31.871Z,100299.78
2023-03-05T21:28:07.187Z,100298.97
2023-03-05T21:30:53.246Z,100303.19
2023-03-05T21:33:30.522Z,100291.63
2023-03-05T21:35:57.399Z,100289.47
2023-03-05T21:38:27.907Z,100293.22
2023-03-05T21:41:04.278Z,100301.13
2023-03-05T21:43:34.695Z,100302.69
2023-03-05T21:46:12.381Z,100297.47
2023-03-05T21:48:42.659Z,100293.63
2023-03-05T21:51:28.672Z,100296.72
2023-03-05T21:53:58.564Z,100291.44
2023-03-05T21:56:29.813Z,100290.91
2023-03-05T21:59:00.751Z,100292.28
2023-03-05T22:01:32.616Z,100293.53
2023-03-05T22:03:59.296Z,100294.09
2023-03-05T22:06:31.541Z,100293.25
2023-03-05T22:09:13.305Z,100282.59
2023-03-05T22:11:42.080Z,100292.84
2023-03-05T22:14:21.220Z,100296.31
2023-03-05T22:17:05.703Z,100290.66
2023-03-05T22:19:57.620Z,100283.03
2023-03-05T22:22:38.198Z,100286.88
2023-03-05T22:27:58.386Z,100285.50
2023-03-05T22:30:39.563Z,100284.31
2023-03-05T22:33:09.189Z,100276.22
2023-03-05T22:35:38.260Z,100270.88
2023-03-05T22:38:11.796Z,100271.59
2023-03-05T22:40:46.848Z,100272.69
2023-03-05T22:43:17.078Z,100282.13
2023-03-05T22:45:43.798Z,100275.41
2023-03-05T22:48:10.506Z,100274.22
2023-03-05T22:50:38.483Z,100281.31
2023-03-05T22:53:05.205Z,100276.06
2023-03-05T22:58:16.789Z,100267.16
2023-03-05T23:00:46.292Z,100276.53
2023-03-05T23:03:16.537Z,100269.41
2023-03-05T23:05:43.186Z,100265.25
2023-03-05T23:08:32.737Z,100265.44
2023-03-05T23:11:00.048Z,100267.41
2023-03-05T23:13:41.865Z,100261.16
2023-03-05T23:16:24.175Z,100255.41
2023-03-05T23:18:50.815Z,100262.97
2023-03-05T23:21:17.601Z,100250.53
2023-03-05T23:23:47.422Z,100256.09
2023-03-05T23:26:25.266Z,100257.81
2023-03-05T23:29:00.589Z,100249.06
2023-03-05T23:31:41.502Z,100250.53
2023-03-05T23:34:11.574Z,100253.28
2023-03-05T23:36:40.089Z,100249.16
2023-03-05T23:39:12.252Z,100241.09
2023-03-05T23:41:38.870Z,100239.00
2023-03-05T23:44:18.686Z,100239.69
2023-03-05T23:46:46.622Z,100239.38
2023-03-05T23:49:18.897Z,100243.25
2023-03-05T23:51:49.243Z,100237.84
2023-03-05T23:54:21.641Z,100241.44
2023-03-05T23:56:59.026Z,100231.38
2023-03-05T23:59:36.689Z,100242.81
